Time;durP1;ratioP1;P1;durP2;ratioP2;P2;SDS_P1;SDS_P2;PMS_P1;PMS_P2;Temp;Humidity;BMP_temperature;BMP_pressure;BME280_temperature;BME280_humidity;BME280_pressure;Samples;Min_cycle;Max_cycle;Signal;HPM_P1;HPM_P2
2021/10/01 00:00:56;;;;;;;4.53;3.22;;;;;;;9.49;74.27;97107.28;5028679;28;20045;-73
2021/10/01 00:03:22;;;;;;;5.15;3.08;;;;;;;9.45;74.29;97106.22;5027552;28;20057;-72
2021/10/01 00:05:49;;;;;;;5.32;2.90;;;;;;;9.41;74.43;97106.03;5028452;28;20057;-75
2021/10/01 00:08:15;;;;;;;4.72;3.22;;;;;;;9.38;74.41;97099.25;5027438;28;20049;-73
2021/10/01 00:10:42;;;;;;;4.97;3.20;;;;;;;9.33;74.71;97104.75;5028213;28;20068;-72
2021/10/01 00:13:08;;;;;;;5.35;3.42;;;;;;;9.29;74.69;97092.03;5027543;28;20056;-74
2021/10/01 00:15:37;;;;;;;6.93;3.67;;;;;;;9.26;75.02;97092.63;5027994;28;20053;-73
2021/10/01 00:18:05;;;;;;;4.80;2.78;;;;;;;9.25;75.07;97093.72;5027950;28;20049;-73
2021/10/01 00:20:31;;;;;;;4.68;3.17;;;;;;;9.23;74.62;97094.00;5039953;28;20047;-73
2021/10/01 00:22:58;;;;;;;6.35;3.25;;;;;;;9.20;74.92;97097.31;5015342;28;20628;-73
2021/10/01 00:25:24;;;;;;;6.35;3.25;;;;;;;9.14;75.31;97102.00;5007439;28;20042;-73
2021/10/01 00:27:51;;;;;;;4.88;3.17;;;;;;;9.09;75.39;97091.19;5008691;28;20050;-73
2021/10/01 00:30:17;;;;;;;4.03;2.97;;;;;;;9.11;75.47;97090.91;5007500;28;20046;-72
2021/10/01 00:32:46;;;;;;;7.88;3.30;;;;;;;9.10;75.99;97081.94;5022561;28;20515;-73
2021/10/01 00:35:12;;;;;;;6.40;3.55;;;;;;;9.11;76.16;97086.28;5027274;28;20045;-73
2021/10/01 00:37:39;;;;;;;4.53;3.40;;;;;;;9.14;75.36;97091.13;5027886;28;20049;-73
2021/10/01 00:40:07;;;;;;;6.15;3.70;;;;;;;9.14;76.02;97088.44;5028042;28;20042;-73
2021/10/01 00:42:33;;;;;;;8.18;4.35;;;;;;;9.15;76.10;97076.44;5027141;28;20045;-73
2021/10/01 00:45:00;;;;;;;5.93;3.50;;;;;;;9.14;76.26;97080.28;5028387;28;20052;-73
2021/10/01 00:47:26;;;;;;;5.28;3.45;;;;;;;9.22;75.92;97086.16;5026780;28;20056;-73
2021/10/01 00:49:54;;;;;;;5.60;3.50;;;;;;;9.22;75.57;97086.16;5028186;28;20045;-73
2021/10/01 00:52:21;;;;;;;5.38;3.28;;;;;;;9.23;76.19;97087.75;5026379;28;20050;-73
2021/10/01 00:54:48;;;;;;;4.75;3.05;;;;;;;9.24;75.70;97073.91;5027976;28;20053;-74
2021/10/01 00:57:15;;;;;;;4.53;3.05;;;;;;;9.25;74.63;97085.59;5027189;28;20061;-73
2021/10/01 00:59:41;;;;;;;5.05;3.10;;;;;;;9.15;74.74;97076.44;5027534;28;20056;-73
2021/10/01 01:02:08;;;;;;;5.65;3.67;;;;;;;9.11;75.34;97080.03;5027344;28;20504;-72
2021/10/01 01:04:36;;;;;;;5.93;3.50;;;;;;;9.07;75.37;97079.81;5027144;28;20049;-74
2021/10/01 01:07:15;;;;;;;7.22;3.67;;;;;;;9.05;75.99;97073.06;5027527;28;20443;-74
2021/10/01 01:09:51;;;;;;;4.38;3.45;;;;;;;9.06;76.40;97074.66;5027163;28;20042;-73
2021/10/01 01:12:35;;;;;;;6.13;4.25;;;;;;;9.06;76.51;97072.75;5027144;28;20428;-74
2021/10/01 01:15:07;;;;;;;5.85;3.80;;;;;;;9.08;76.53;97069.72;5027766;28;20049;-75
2021/10/01 01:17:39;;;;;;;5.60;3.97;;;;;;;9.08;76.35;97064.31;5027746;28;20409;-72
2021/10/01 01:20:10;;;;;;;6.13;3.70;;;;;;;9.09;76.31;97058.59;5027539;28;20049;-73
2021/10/01 01:22:52;;;;;;;8.00;3.65;;;;;;;9.11;76.23;97053.66;5026335;28;20052;-73
2021/10/01 01:25:40;;;;;;;7.63;3.78;;;;;;;9.10;75.80;97049.34;5027471;28;20144;-73
2021/10/01 01:28:11;;;;;;;5.20;3.90;;;;;;;9.08;76.43;97037.97;5026630;28;20412;-73
2021/10/01 01:30:40;;;;;;;4.97;3.53;;;;;;;9.10;76.25;97030.31;5027516;28;20041;-73
2021/10/01 01:33:12;;;;;;;5.50;3.97;;;;;;;9.09;76.38;97028.72;5027102;28;20053;-72
2021/10/01 01:35:41;;;;;;;5.53;3.63;;;;;;;9.09;76.38;97034.16;5028052;28;20061;-73
2021/10/01 01:38:10;;;;;;;5.28;3.80;;;;;;;9.06;75.45;97029.28;5031090;28;20049;-72
2021/10/01 01:40:39;;;;;;;9.50;3.40;;;;;;;9.02;75.81;97033.69;5030410;28;20049;-73
2021/10/01 01:43:09;;;;;;;5.03;3.00;;;;;;;9.03;75.89;97035.31;5030972;28;20049;-72
2021/10/01 01:45:37;;;;;;;5.50;3.65;;;;;;;9.02;74.58;97028.25;5030316;28;20049;-73
2021/10/01 01:48:05;;;;;;;4.97;3.72;;;;;;;8.98;74.89;97026.41;5030454;28;20045;-73
2021/10/01 01:50:34;;;;;;;5.60;3.38;;;;;;;8.87;75.15;97025.72;5027624;28;20057;-73
2021/10/01 01:53:04;;;;;;;6.50;3.42;;;;;;;8.79;75.04;97023.66;5030660;28;20107;-73
2021/10/01 01:55:31;;;;;;;7.50;3.58;;;;;;;8.75;76.37;97018.00;5030674;28;20484;-72
2021/10/01 01:58:00;;;;;;;5.45;3.80;;;;;;;8.74;76.95;97015.56;5030118;28;20057;-73
2021/10/01 02:00:27;;;;;;;6.97;4.13;;;;;;;8.72;76.91;97012.31;5030316;28;20049;-72
2021/10/01 02:02:56;;;;;;;6.13;4.25;;;;;;;8.70;76.63;97001.75;5029619;28;20076;-73
2021/10/01 02:05:24;;;;;;;7.00;4.15;;;;;;;8.69;76.84;97002.06;5030397;28;20056;-73
2021/10/01 02:07:55;;;;;;;5.57;3.88;;;;;;;8.71;76.29;97000.66;5029789;28;20038;-73
2021/10/01 02:10:22;;;;;;;6.32;3.70;;;;;;;8.73;76.58;97003.91;5029716;28;20511;-74
2021/10/01 02:12:53;;;;;;;7.32;4.22;;;;;;;8.74;76.83;97004.72;5030108;28;20589;-73
2021/10/01 02:15:22;;;;;;;5.65;4.53;;;;;;;8.73;76.77;97003.09;5029766;28;20050;-72
2021/10/01 02:17:51;;;;;;;5.35;3.75;;;;;;;8.71;76.88;97008.00;5030388;28;20053;-72
2021/10/01 02:20:19;;;;;;;5.57;3.92;;;;;;;8.74;76.57;97000.09;5029067;28;20077;-73
2021/10/01 02:22:46;;;;;;;6.32;4.20;;;;;;;8.72;76.66;96996.03;5030568;28;20047;-74
2021/10/01 02:28:02;;;;;;;6.90;4.00;;;;;;;8.73;76.85;96989.53;5030257;28;20056;-73
2021/10/01 02:30:30;;;;;;;6.03;4.05;;;;;;;8.71;77.16;96988.97;5029397;28;20056;-73
2021/10/01 02:33:00;;;;;;;7.05;4.43;;;;;;;8.69;77.14;96991.19;5029364;28;20049;-73
2021/10/01 02:35:27;;;;;;;5.55;4.10;;;;;;;8.65;77.20;96984.72;5030049;28;20048;-74
2021/10/01 02:37:54;;;;;;;7.00;4.10;;;;;;;8.62;77.30;96981.50;5029470;28;20048;-75
2021/10/01 02:40:22;;;;;;;6.50;4.18;;;;;;;8.62;77.30;96981.50;5029735;28;20416;-72
2021/10/01 02:42:49;;;;;;;11.00;5.20;;;;;;;8.59;77.75;96981.25;5029064;28;20045;-73
2021/10/01 02:45:16;;;;;;;5.22;4.10;;;;;;;8.55;77.44;96975.59;5030031;28;20041;-72
2021/10/01 02:47:43;;;;;;;6.38;4.22;;;;;;;8.54;77.43;96973.19;5028725;28;20052;-73
2021/10/01 02:50:15;;;;;;;8.90;4.63;;;;;;;8.52;77.45;96978.91;5029466;28;20045;-72
2021/10/01 02:52:47;;;;;;;6.35;4.25;;;;;;;8.49;77.80;96982.19;5029514;28;20052;-74
2021/10/01 02:55:18;;;;;;;6.50;4.35;;;;;;;8.46;77.25;96977.34;5028848;28;20034;-73
2021/10/01 02:57:55;;;;;;;5.82;4.20;;;;;;;8.51;76.57;96974.56;5029628;28;20049;-72
2021/10/01 03:00:23;;;;;;;6.10;4.15;;;;;;;8.54;76.22;96968.56;5028639;28;20053;-73
2021/10/01 03:02:52;;;;;;;5.50;3.83;;;;;;;8.52;76.68;96965.34;5029974;28;20041;-73
2021/10/01 03:05:20;;;;;;;7.65;4.30;;;;;;;8.50;76.66;96961.28;5028459;28;20056;-73
2021/10/01 03:07:48;;;;;;;6.97;4.30;;;;;;;8.50;76.89;96962.06;5029274;28;20049;-72
2021/10/01 03:10:16;;;;;;;5.20;4.47;;;;;;;8.51;77.46;96963.72;5028579;28;20041;-72
2021/10/01 03:12:45;;;;;;;6.32;4.45;;;;;;;8.50;77.46;96956.66;5029021;28;20045;-72
2021/10/01 03:15:14;;;;;;;7.32;4.25;;;;;;;8.49;77.64;96963.19;5028943;28;20056;-74
2021/10/01 03:17:42;;;;;;;5.18;4.20;;;;;;;8.47;77.60;96951.81;5028935;28;20508;-73
2021/10/01 03:20:10;;;;;;;5.70;4.40;;;;;;;8.47;77.83;96954.53;5028714;28;20045;-72
2021/10/01 03:22:40;;;;;;;6.10;4.15;;;;;;;8.45;77.93;96951.28;5028507;28;20046;-73
2021/10/01 03:25:08;;;;;;;6.43;3.95;;;;;;;8.44;77.70;96946.97;5028888;28;20042;-72
2021/10/01 03:27:35;;;;;;;5.85;3.70;;;;;;;8.45;77.48;96937.72;5028518;28;20093;-73
2021/10/01 03:30:07;;;;;;;5.35;4.18;;;;;;;8.47;76.86;96932.81;5029138;28;20045;-72
2021/10/01 03:32:35;;;;;;;7.28;3.58;;;;;;;8.49;75.92;96937.94;5028556;28;20144;-73
2021/10/01 03:35:03;;;;;;;7.03;4.22;;;;;;;8.48;76.70;96941.75;5028450;28;20049;-71
2021/10/01 03:37:30;;;;;;;6.32;3.95;;;;;;;8.48;76.35;96948.00;5028731;28;20041;-72
2021/10/01 03:39:58;;;;;;;5.18;3.80;;;;;;;8.46;76.34;96938.53;5028188;28;20045;-72
2021/10/01 03:42:25;;;;;;;5.47;3.58;;;;;;;8.44;76.25;96936.09;5028527;28;20049;-73
2021/10/01 03:44:52;;;;;;;5.35;3.55;;;;;;;8.35;76.11;96935.09;5027601;28;20045;-73
2021/10/01 03:47:19;;;;;;;6.55;3.97;;;;;;;8.32;76.15;96943.81;5028780;28;20501;-73
2021/10/01 03:49:47;;;;;;;7.43;3.83;;;;;;;8.31;76.45;96934.88;5028021;28;20052;-73
2021/10/01 03:52:14;;;;;;;5.30;3.97;;;;;;;8.29;76.88;96933.53;5028006;28;20046;-73
2021/10/01 03:54:43;;;;;;;11.55;4.63;;;;;;;8.27;76.59;96938.44;5028149;28;20045;-74
2021/10/01 03:57:11;;;;;;;7.75;4.20;;;;;;;8.30;76.56;96937.84;5028105;28;20136;-72
2021/10/01 03:59:38;;;;;;;6.78;3.97;;;;;;;8.28;76.67;96926.50;5027525;28;20805;-73
2021/10/01 04:02:04;;;;;;;7.65;4.38;;;;;;;8.29;76.68;96923.47;5027706;28;20056;-73
2021/10/01 04:04:31;;;;;;;8.77;3.90;;;;;;;8.29;76.73;96917.25;5028588;28;20412;-73
2021/10/01 04:07:00;;;;;;;8.82;3.83;;;;;;;8.32;76.50;96930.25;5027410;28;20583;-73
2021/10/01 04:09:26;;;;;;;6.43;4.07;;;;;;;8.27;76.79;96919.47;5026000;28;20773;-73
2021/10/01 04:11:54;;;;;;;6.60;3.85;;;;;;;8.22;76.51;96916.81;5027543;28;20515;-73
2021/10/01 04:14:21;;;;;;;5.63;4.22;;;;;;;8.16;76.99;96918.78;5028014;28;20041;-73
2021/10/01 04:16:48;;;;;;;5.55;3.72;;;;;;;8.15;76.69;96916.34;5027591;28;20060;-73
2021/10/01 04:19:14;;;;;;;10.95;4.90;;;;;;;8.14;76.88;96912.81;5027663;28;20065;-72
2021/10/01 04:21:41;;;;;;;10.32;4.63;;;;;;;8.12;76.93;96917.72;5027506;28;20509;-73
2021/10/01 04:24:09;;;;;;;5.60;4.15;;;;;;;8.10;77.37;96907.16;5027110;28;20065;-72
2021/10/01 04:26:35;;;;;;;7.25;4.30;;;;;;;8.09;77.36;96902.84;5028050;28;20617;-72
2021/10/01 04:29:02;;;;;;;6.55;5.07;;;;;;;8.07;77.57;96901.50;5027013;28;20528;-72
2021/10/01 04:31:29;;;;;;;7.95;4.80;;;;;;;8.06;77.67;96897.97;5027895;28;20049;-73
2021/10/01 04:33:55;;;;;;;6.22;4.90;;;;;;;8.07;77.37;96904.22;5026615;28;20441;-72
2021/10/01 04:36:22;;;;;;;8.98;5.13;;;;;;;8.06;77.28;96897.19;5027555;28;20054;-73
2021/10/01 04:38:49;;;;;;;10.70;4.80;;;;;;;8.06;77.14;96903.41;5027224;28;20560;-73
2021/10/01 04:41:17;;;;;;;8.20;5.20;;;;;;;8.05;77.19;96896.38;5027288;28;20046;-73
2021/10/01 04:43:43;;;;;;;8.88;5.57;;;;;;;8.10;76.64;96896.31;5027260;28;20052;-73
2021/10/01 04:46:10;;;;;;;8.70;5.57;;;;;;;8.06;76.91;96903.41;5027282;28;20053;-72
2021/10/01 04:48:37;;;;;;;8.93;4.75;;;;;;;8.09;77.30;96907.44;5027356;28;20053;-72
2021/10/01 04:51:03;;;;;;;7.88;4.97;;;;;;;8.05;77.27;96915.34;5026303;28;20412;-73
2021/10/01 04:53:30;;;;;;;9.05;5.20;;;;;;;8.08;76.61;96913.97;5027883;28;20049;-73
2021/10/01 04:55:56;;;;;;;7.38;4.85;;;;;;;8.10;76.79;96909.88;5027100;28;20049;-72
2021/10/01 04:58:24;;;;;;;8.48;4.88;;;;;;;8.08;76.66;96911.25;5027323;28;20053;-73
2021/10/01 05:00:51;;;;;;;8.77;5.00;;;;;;;8.09;77.27;96912.84;5027152;28;20046;-73
2021/10/01 05:03:17;;;;;;;8.60;5.20;;;;;;;8.04;77.18;96905.63;5027163;28;20057;-73
2021/10/01 05:05:44;;;;;;;11.25;5.20;;;;;;;8.04;77.50;96915.66;5027141;28;20049;-73
2021/10/01 05:08:10;;;;;;;7.18;5.40;;;;;;;8.03;77.53;96908.59;5026812;28;20116;-74
2021/10/01 05:10:37;;;;;;;10.75;5.43;;;;;;;7.99;77.56;96902.94;5030108;28;20061;-73
2021/10/01 05:13:03;;;;;;;9.48;5.93;;;;;;;7.97;77.04;96905.13;5029993;28;20121;-73
2021/10/01 05:15:33;;;;;;;8.77;5.13;;;;;;;7.98;77.26;96912.16;5031455;28;20049;-72
2021/10/01 05:18:00;;;;;;;7.45;5.03;;;;;;;8.03;76.79;96903.97;5030662;28;20050;-73
2021/10/01 05:20:26;;;;;;;10.43;5.40;;;;;;;8.04;76.96;96905.63;5030939;28;20053;-73
2021/10/01 05:22:53;;;;;;;7.35;4.30;;;;;;;8.08;76.27;96903.91;5030367;28;20783;-72
2021/10/01 05:25:19;;;;;;;9.38;5.28;;;;;;;8.03;76.69;96903.97;5031305;28;20046;-73
2021/10/01 05:27:46;;;;;;;10.65;5.90;;;;;;;7.99;77.47;96905.66;5029253;28;20076;-74
2021/10/01 05:30:13;;;;;;;9.10;5.60;;;;;;;7.97;77.69;96905.13;5030081;28;20041;-74
2021/10/01 05:32:41;;;;;;;8.35;5.15;;;;;;;7.97;77.99;96910.56;5030613;28;20547;-74
2021/10/01 05:35:08;;;;;;;10.18;5.18;;;;;;;7.95;77.14;96907.34;5030386;28;20056;-73
2021/10/01 05:37:34;;;;;;;13.30;5.30;;;;;;;8.02;76.90;96906.97;5030699;28;20084;-74
2021/10/01 05:40:01;;;;;;;8.60;5.05;;;;;;;8.04;76.71;96900.19;5028652;28;20056;-74
2021/10/01 05:42:27;;;;;;;7.32;4.90;;;;;;;8.04;76.78;96910.22;5029953;28;20085;-74
2021/10/01 05:44:54;;;;;;;8.88;5.75;;;;;;;8.03;77.69;96906.69;5029425;28;20045;-74
2021/10/01 05:47:20;;;;;;;8.88;5.88;;;;;;;8.04;77.93;96897.47;5030336;28;20045;-74
2021/10/01 05:49:48;;;;;;;9.82;6.30;;;;;;;8.01;77.85;96898.03;5030052;28;20041;-73
2021/10/01 05:52:25;;;;;;;15.00;7.03;;;;;;;8.00;78.14;96896.44;5029889;28;20053;-73
2021/10/01 05:54:52;;;;;;;9.45;6.50;;;;;;;8.00;78.45;96893.72;5029860;28;20052;-73
2021/10/01 05:57:20;;;;;;;10.77;6.20;;;;;;;8.04;77.88;96894.75;5029954;28;20047;-72
2021/10/01 05:59:47;;;;;;;13.55;6.68;;;;;;;8.02;77.75;96902.38;5030729;28;20045;-72
2021/10/01 06:02:15;;;;;;;10.55;6.40;;;;;;;8.01;77.94;96895.31;5029857;28;20049;-72
2021/10/01 06:04:42;;;;;;;11.00;6.55;;;;;;;8.02;78.22;96896.94;5030870;28;20045;-72
2021/10/01 06:07:12;;;;;;;14.13;7.13;;;;;;;8.06;78.15;96897.97;5029203;28;20053;-72
2021/10/01 06:09:38;;;;;;;12.50;7.53;;;;;;;8.16;77.48;96905.19;5030699;28;20570;-73
2021/10/01 06:12:05;;;;;;;12.23;6.20;;;;;;;8.19;77.25;96906.53;5029157;28;20045;-72
2021/10/01 06:14:32;;;;;;;10.45;6.50;;;;;;;8.19;77.60;96912.75;5030641;28;20049;-73
2021/10/01 06:16:59;;;;;;;10.20;6.35;;;;;;;8.26;77.95;96898.84;5030129;28;20049;-73
2021/10/01 06:19:25;;;;;;;10.60;6.40;;;;;;;8.29;77.67;96900.97;5030113;28;20056;-72
2021/10/01 06:21:54;;;;;;;8.20;6.03;;;;;;;8.39;78.11;96906.31;5028997;28;20052;-73
2021/10/01 06:24:22;;;;;;;11.18;6.60;;;;;;;8.51;77.61;96901.28;5029315;28;20136;-73
2021/10/01 06:26:49;;;;;;;9.55;6.32;;;;;;;8.52;77.87;96913.75;5030453;28;20045;-72
2021/10/01 06:29:16;;;;;;;10.57;6.65;;;;;;;8.59;77.79;96910.69;5028268;28;20500;-73
2021/10/01 06:31:43;;;;;;;11.93;6.20;;;;;;;8.67;78.21;96901.91;5030526;28;20684;-72
2021/10/01 06:34:11;;;;;;;11.13;6.47;;;;;;;8.74;77.82;96906.97;5029172;28;20037;-72
2021/10/01 06:36:38;;;;;;;11.48;7.38;;;;;;;8.83;77.85;96905.22;5030283;28;20052;-73
2021/10/01 06:39:05;;;;;;;12.05;6.60;;;;;;;8.89;77.35;96910.28;5028749;28;20684;-72
2021/10/01 06:41:34;;;;;;;9.93;6.15;;;;;;;8.95;77.18;96908.28;5030177;28;20052;-72
2021/10/01 06:44:02;;;;;;;7.82;5.93;;;;;;;9.03;76.59;96904.09;5029984;28;20041;-72
2021/10/01 06:46:36;;;;;;;12.52;5.53;;;;;;;9.09;77.09;96909.16;5029237;28;20052;-71
2021/10/01 06:49:16;;;;;;;8.93;5.32;;;;;;;9.20;76.89;96903.59;5029153;28;20136;-72
2021/10/01 07:22:17;;;;;;;9.25;7.65;;;;;;;11.96;68.11;96894.06;4990086;28;20490;-71
2021/10/01 08:19:44;;;;;;;5.47;4.00;;;;;;;15.70;55.87;96892.94;5027726;28;20061;-72
2021/10/01 08:22:12;;;;;;;4.55;3.60;;;;;;;15.48;57.17;96890.56;5027784;28;20046;-73
2021/10/01 08:24:39;;;;;;;6.15;3.90;;;;;;;15.19;57.60;96888.69;5027552;28;20500;-73
2021/10/01 08:27:06;;;;;;;5.15;4.07;;;;;;;14.88;60.23;96890.69;5028181;28;20041;-73
2021/10/01 08:29:33;;;;;;;5.72;4.03;;;;;;;14.71;60.74;96889.97;5027535;28;20050;-73
2021/10/01 08:32:00;;;;;;;6.22;4.78;;;;;;;14.38;59.65;96882.38;5028870;28;20043;-72
2021/10/01 08:34:28;;;;;;;5.97;4.60;;;;;;;14.27;60.53;96887.44;5047670;28;20055;-71
2021/10/01 08:36:56;;;;;;;7.45;5.22;;;;;;;14.24;61.94;96888.06;5048198;28;20041;-71
2021/10/01 08:39:23;;;;;;;6.53;4.53;;;;;;;14.39;61.49;96888.66;5047254;28;20045;-72
2021/10/01 08:41:50;;;;;;;7.05;5.35;;;;;;;14.39;61.67;96878.50;5048077;28;20048;-73
2021/10/01 08:44:17;;;;;;;8.20;5.10;;;;;;;14.32;60.64;96881.78;5046862;28;20049;-71
2021/10/01 08:46:45;;;;;;;7.05;4.97;;;;;;;14.24;61.50;96877.13;5047877;28;20095;-71
2021/10/01 08:49:13;;;;;;;9.82;5.53;;;;;;;14.22;61.94;96873.91;5047617;28;20045;-71
2021/10/01 08:51:39;;;;;;;6.90;4.90;;;;;;;14.13;62.94;96870.41;5040667;28;20049;-72
2021/10/01 08:54:08;;;;;;;8.13;5.20;;;;;;;14.08;63.78;96868.63;5028196;28;20048;-72
2021/10/01 08:56:35;;;;;;;11.18;5.75;;;;;;;14.14;64.50;96869.25;5027761;28;20060;-72
2021/10/01 08:59:01;;;;;;;7.55;5.05;;;;;;;14.16;63.10;96869.75;5027326;28;20518;-72
2021/10/01 09:01:28;;;;;;;9.95;6.05;;;;;;;14.23;64.00;96870.03;5027339;28;20044;-71
2021/10/01 09:03:55;;;;;;;9.48;6.22;;;;;;;14.26;63.46;96866.66;5028041;28;20057;-72
2021/10/01 09:06:21;;;;;;;6.78;4.90;;;;;;;14.21;63.47;96860.56;5027262;28;20049;-72
2021/10/01 09:08:51;;;;;;;6.63;4.63;;;;;;;14.22;63.17;96862.16;5027584;28;20056;-73
2021/10/01 09:11:25;;;;;;;6.07;4.07;;;;;;;14.20;65.02;96859.75;5027660;28;20123;-71
2021/10/01 09:13:51;;;;;;;8.48;4.45;;;;;;;14.19;63.07;96857.31;5027124;28;20053;-71
2021/10/01 09:16:18;;;;;;;5.50;4.68;;;;;;;14.24;64.57;96849.72;5027729;28;20056;-73
2021/10/01 09:18:47;;;;;;;6.53;4.60;;;;;;;14.43;63.39;96852.06;5027425;28;20046;-71
2021/10/01 09:21:16;;;;;;;4.50;3.75;;;;;;;14.80;62.04;96844.94;5027048;28;20044;-72
2021/10/01 09:23:54;;;;;;;5.78;4.20;;;;;;;14.85;60.01;96852.97;5027124;28;20520;-71
2021/10/01 09:26:25;;;;;;;6.20;4.50;;;;;;;15.14;61.26;96854.06;5027580;28;20568;-72
2021/10/01 09:28:55;;;;;;;6.88;5.00;;;;;;;15.17;61.18;96850.63;5028215;28;20052;-73
2021/10/01 09:31:46;;;;;;;9.32;5.18;;;;;;;15.31;61.13;96848.41;5026616;28;20331;-74
2021/10/01 09:34:15;;;;;;;7.43;4.95;;;;;;;15.31;61.18;96837.44;5012770;28;20123;-74
2021/10/01 09:36:43;;;;;;;7.25;4.88;;;;;;;15.36;60.14;96833.69;5025589;28;20053;-73
2021/10/01 09:39:26;;;;;;;8.68;5.65;;;;;;;15.17;59.68;96836.91;5026710;28;20063;-75
2021/10/01 09:41:54;;;;;;;11.93;4.60;;;;;;;15.14;61.55;96837.59;5027188;28;20049;-75
2021/10/01 09:44:21;;;;;;;10.15;4.97;;;;;;;15.26;62.32;96832.16;5026749;28;20081;-75
2021/10/01 09:46:50;;;;;;;7.85;4.93;;;;;;;15.42;60.57;96831.53;5027259;28;20123;-74
2021/10/01 09:49:18;;;;;;;6.47;4.22;;;;;;;15.51;59.11;96829.50;5026271;28;20053;-74
2021/10/01 09:51:49;;;;;;;8.77;3.97;;;;;;;15.58;58.82;96829.75;5027475;28;20105;-74
2021/10/01 09:54:17;;;;;;;4.65;3.45;;;;;;;15.74;57.61;96821.69;5026192;28;20053;-74
2021/10/01 09:56:44;;;;;;;6.78;3.70;;;;;;;15.82;57.83;96824.38;5028207;28;20049;-72
2021/10/01 09:59:14;;;;;;;3.75;2.80;;;;;;;15.82;55.91;96816.13;5029973;28;20049;-72
2021/10/01 10:01:59;;;;;;;4.97;2.63;;;;;;;15.84;57.98;96811.09;5030538;28;20045;-72
2021/10/01 10:04:27;;;;;;;3.40;2.75;;;;;;;15.99;58.59;96800.59;5030539;28;20052;-73
2021/10/01 10:06:54;;;;;;;5.20;3.22;;;;;;;16.05;56.87;96811.00;5029961;28;20041;-73
2021/10/01 10:09:31;;;;;;;6.28;3.30;;;;;;;16.08;57.83;96804.03;5030420;28;20057;-72
2021/10/01 10:11:57;;;;;;;5.53;3.55;;;;;;;16.13;58.06;96806.53;5030163;28;20065;-73
2021/10/01 10:14:26;;;;;;;5.03;3.22;;;;;;;16.21;58.94;96802.88;5030484;28;20048;-73
2021/10/01 10:16:53;;;;;;;3.65;2.60;;;;;;;16.30;59.24;96811.81;5029746;28;20042;-72
2021/10/01 10:19:21;;;;;;;5.15;3.22;;;;;;;16.30;58.26;96800.81;5030102;28;20048;-73
2021/10/01 10:21:49;;;;;;;4.57;3.10;;;;;;;16.40;59.02;96799.56;5029556;28;20050;-73
2021/10/01 10:24:16;;;;;;;6.22;3.28;;;;;;;16.39;59.05;96785.03;5029875;28;20061;-74
2021/10/01 10:26:42;;;;;;;5.55;3.13;;;;;;;16.39;59.59;96787.75;5030629;28;20045;-72
2021/10/01 10:29:12;;;;;;;6.65;2.88;;;;;;;16.41;58.55;96785.47;5030230;28;20041;-72
2021/10/01 10:31:44;;;;;;;11.40;3.50;;;;;;;16.35;59.36;96781.34;5031049;28;20049;-72
2021/10/01 10:34:23;;;;;;;5.30;3.03;;;;;;;16.36;59.95;96777.44;5029309;28;20057;-71
2021/10/01 10:36:51;;;;;;;5.57;2.92;;;;;;;16.41;60.72;96779.97;5030685;28;20544;-72
2021/10/01 10:39:41;;;;;;;5.85;3.17;;;;;;;16.50;59.43;96773.56;5029105;28;20049;-72
2021/10/01 10:42:14;;;;;;;5.22;3.58;;;;;;;16.41;59.53;96768.97;5029856;28;20046;-72
2021/10/01 10:44:47;;;;;;;5.82;3.38;;;;;;;16.47;60.95;96760.50;5030224;28;20053;-73
2021/10/01 10:47:44;;;;;;;7.95;2.95;;;;;;;16.44;60.64;96767.47;5029368;28;20051;-72
2021/10/01 10:50:33;;;;;;;5.32;3.08;;;;;;;16.41;60.99;96757.97;5010288;28;20057;-72
2021/10/01 10:53:16;;;;;;;5.85;3.03;;;;;;;16.44;60.73;96760.03;5009956;28;20046;-73
2021/10/01 10:55:45;;;;;;;4.83;3.40;;;;;;;16.42;60.86;96745.81;5015802;28;20524;-73
2021/10/01 10:58:41;;;;;;;5.55;3.75;;;;;;;16.48;61.08;96742.84;5009678;28;20417;-73
2021/10/01 11:01:25;;;;;;;4.47;3.17;;;;;;;16.48;60.36;96740.91;5010033;28;20050;-72
2021/10/01 11:04:30;;;;;;;4.38;3.33;;;;;;;16.40;61.14;96739.88;5029518;28;20052;-73
2021/10/01 11:06:57;;;;;;;4.47;3.05;;;;;;;16.43;61.64;96738.38;5028470;28;20132;-73
2021/10/01 11:09:29;;;;;;;6.30;3.50;;;;;;;16.46;61.77;96734.16;5027829;28;20057;-73
2021/10/01 11:11:58;;;;;;;5.47;2.88;;;;;;;16.54;62.35;96733.22;5028930;28;20132;-73
2021/10/01 11:14:28;;;;;;;6.10;3.55;;;;;;;16.61;62.20;96722.44;5027258;28;20053;-74
2021/10/01 11:17:17;;;;;;;6.00;3.88;;;;;;;16.68;62.04;96719.88;5028875;28;20064;-73
2021/10/01 11:19:47;;;;;;;7.22;3.58;;;;;;;16.74;62.20;96714.97;5027814;28;20111;-74
2021/10/01 11:22:33;;;;;;;5.53;3.58;;;;;;;16.80;62.17;96722.63;5027823;28;20049;-74
2021/10/01 11:25:10;;;;;;;7.72;3.47;;;;;;;16.88;62.28;96720.88;5029067;28;20665;-73
2021/10/01 11:27:47;;;;;;;5.15;3.28;;;;;;;16.96;62.75;96717.16;5028165;28;20099;-74
2021/10/01 11:30:14;;;;;;;6.70;3.90;;;;;;;17.04;61.20;96712.69;5029052;28;20046;-73
2021/10/01 11:32:40;;;;;;;5.50;3.35;;;;;;;17.11;60.04;96713.66;5028180;28;20045;-74
2021/10/01 11:35:08;;;;;;;5.75;4.03;;;;;;;17.18;60.46;96708.38;5027383;28;20045;-72
2021/10/01 11:37:37;;;;;;;5.97;3.00;;;;;;;17.31;61.18;96706.34;5028511;28;20508;-73
2021/10/01 11:40:07;;;;;;;5.72;3.03;;;;;;;17.44;61.43;96696.88;5027582;28;20050;-75
2021/10/01 11:42:36;;;;;;;4.55;3.22;;;;;;;17.56;60.07;96695.19;5028887;28;20041;-74
2021/10/01 11:45:10;;;;;;;5.18;3.10;;;;;;;17.65;59.91;96693.06;5027811;28;20050;-75
2021/10/01 11:47:37;;;;;;;6.40;2.72;;;;;;;17.78;58.92;96693.78;5028656;28;20056;-75
2021/10/01 11:50:04;;;;;;;5.65;3.00;;;;;;;17.86;59.45;96688.09;5026483;28;20493;-73
2021/10/01 11:52:43;;;;;;;7.63;3.60;;;;;;;17.95;58.77;96674.91;5027495;28;20049;-73
2021/10/01 11:55:11;;;;;;;5.20;2.65;;;;;;;18.09;58.92;96679.97;5026703;28;20060;-74
2021/10/01 11:57:39;;;;;;;3.95;2.90;;;;;;;18.16;58.05;96679.31;5027535;28;20500;-72
2021/10/01 12:00:09;;;;;;;4.47;2.88;;;;;;;18.29;58.13;96667.03;5026812;28;20057;-72
2021/10/01 12:02:37;;;;;;;7.25;2.72;;;;;;;18.44;57.38;96662.63;5027115;28;20144;-73
2021/10/01 12:05:27;;;;;;;3.55;2.22;;;;;;;18.62;57.98;96654.72;5027353;28;20049;-72
2021/10/01 12:07:57;;;;;;;5.45;2.38;;;;;;;18.75;57.21;96653.47;5026903;28;20053;-73
2021/10/01 12:10:26;;;;;;;5.30;3.05;;;;;;;18.88;57.58;96652.13;5026978;28;20408;-72
2021/10/01 12:13:06;;;;;;;4.07;2.20;;;;;;;19.04;55.95;96652.03;5027013;28;20045;-72
2021/10/01 12:15:42;;;;;;;3.50;2.20;;;;;;;19.13;55.49;96649.03;5026796;28;20488;-73
2021/10/01 12:18:33;;;;;;;3.97;2.35;;;;;;;19.28;54.56;96645.38;5027563;28;20049;-72
2021/10/01 12:21:02;;;;;;;5.00;2.30;;;;;;;19.40;55.75;96636.91;5024249;28;20048;-74
2021/10/01 12:23:35;;;;;;;3.58;2.05;;;;;;;19.54;55.11;96637.16;5028108;28;20796;-74
2021/10/01 12:26:27;;;;;;;2.65;2.00;;;;;;;19.77;54.70;96628.06;5027560;28;20131;-73
2021/10/01 12:29:07;;;;;;;4.95;2.15;;;;;;;19.93;54.54;96623.19;5019493;28;20041;-73
2021/10/01 12:31:40;;;;;;;3.85;2.10;;;;;;;20.11;55.24;96614.38;5027731;28;20697;-72
2021/10/01 12:34:08;;;;;;;;;;;;;;;20.20;52.87;96617.63;5027112;28;20667;-73
2021/10/01 12:36:36;;;;;;;5.95;1.73;;;;;;;20.25;52.93;96614.53;5028281;28;19925;-72
2021/10/01 12:39:05;;;;;;;2.80;1.70;;;;;;;20.34;52.95;96612.28;5026125;28;20151;-72
2021/10/01 12:41:33;;;;;;;4.05;1.50;;;;;;;20.39;51.54;96614.72;5028448;28;20081;-73
2021/10/01 12:44:02;;;;;;;2.75;1.83;;;;;;;20.43;53.50;96603.72;5027182;28;20443;-73
2021/10/01 12:46:40;;;;;;;3.63;1.52;;;;;;;20.54;51.31;96607.44;5027331;28;20208;-73
2021/10/01 12:49:12;;;;;;;5.00;1.65;;;;;;;20.57;50.79;96593.66;5026836;28;20046;-72
2021/10/01 12:51:39;;;;;;;3.72;1.70;;;;;;;20.66;50.29;96598.09;5027082;28;20053;-74
2021/10/01 12:57:16;;;;;;;1.80;1.30;;;;;;;20.71;51.65;96581.16;5004512;28;20921;-72
2021/10/01 12:59:44;;;;;;;3.92;1.27;;;;;;;20.83;51.00;96583.69;5001365;28;20053;-73
2021/10/01 13:02:15;;;;;;;3.35;1.30;;;;;;;20.91;49.72;96585.34;5000448;28;20523;-72
2021/10/01 13:04:51;;;;;;;3.42;1.48;;;;;;;20.96;49.50;96576.69;5001119;28;20057;-73
2021/10/01 13:07:46;;;;;;;3.42;1.50;;;;;;;20.99;47.99;96575.94;5001042;28;20057;-73
2021/10/01 13:10:27;;;;;;;3.65;1.30;;;;;;;21.01;49.41;96568.03;5000535;28;20050;-72
2021/10/01 13:12:58;;;;;;;1.88;1.50;;;;;;;21.02;48.40;96568.81;5001733;28;20050;-75
2021/10/01 13:15:27;;;;;;;4.07;1.80;;;;;;;20.97;48.79;96564.44;5000735;28;20050;-72
2021/10/01 13:18:14;;;;;;;2.60;1.60;;;;;;;21.11;48.73;96561.00;5000787;28;20046;-73
2021/10/01 13:20:43;;;;;;;3.85;1.27;;;;;;;21.17;50.35;96553.16;4999761;28;20135;-74